sensor_id;sensor_type;location;lat;lon;timestamp;temperature;humidity
81383;DHT22;70834;37.534;-122.308;2023-10-13T00:01:05;26.00;34.00
81383;DHT22;70834;37.534;-122.308;2023-10-13T00:03:27;25.90;34.00
81383;DHT22;70834;37.534;-122.308;2023-10-13T00:05:57;25.90;34.10
81383;DHT22;70834;37.534;-122.308;2023-10-13T00:08:20;25.80;34.30
81383;DHT22;70834;37.534;-122.308;2023-10-13T00:10:42;25.70;34.40
81383;DHT22;70834;37.534;-122.308;2023-10-13T00:13:04;25.70;34.70
81383;DHT22;70834;37.534;-122.308;2023-10-13T00:15:41;25.60;34.70
81383;DHT22;70834;37.534;-122.308;2023-10-13T00:18:13;25.50;34.40
81383;DHT22;70834;37.534;-122.308;2023-10-13T00:20:34;25.50;34.30
81383;DHT22;70834;37.534;-122.308;2023-10-13T00:22:58;25.50;34.40
81383;DHT22;70834;37.534;-122.308;2023-10-13T00:25:20;25.40;34.90
81383;DHT22;70834;37.534;-122.308;2023-10-13T00:27:47;25.40;34.70
81383;DHT22;70834;37.534;-122.308;2023-10-13T00:30:13;25.30;34.80
81383;DHT22;70834;37.534;-122.308;2023-10-13T00:32:51;25.30;34.80
81383;DHT22;70834;37.534;-122.308;2023-10-13T00:35:16;25.20;35.50
81383;DHT22;70834;37.534;-122.308;2023-10-13T00:37:49;25.20;35.70
81383;DHT22;70834;37.534;-122.308;2023-10-13T00:40:14;25.20;35.80
81383;DHT22;70834;37.534;-122.308;2023-10-13T00:42:52;25.10;35.80
81383;DHT22;70834;37.534;-122.308;2023-10-13T00:45:14;25.10;35.90
81383;DHT22;70834;37.534;-122.308;2023-10-13T00:47:38;25.00;36.00
81383;DHT22;70834;37.534;-122.308;2023-10-13T00:49:59;25.00;35.60
81383;DHT22;70834;37.534;-122.308;2023-10-13T00:52:21;24.90;35.60
81383;DHT22;70834;37.534;-122.308;2023-10-13T00:54:45;24.90;35.90
81383;DHT22;70834;37.534;-122.308;2023-10-13T00:57:09;24.80;35.90
81383;DHT22;70834;37.534;-122.308;2023-10-13T00:59:47;24.80;35.50
81383;DHT22;70834;37.534;-122.308;2023-10-13T01:02:09;24.70;35.60
81383;DHT22;70834;37.534;-122.308;2023-10-13T01:05:06;24.60;35.50
81383;DHT22;70834;37.534;-122.308;2023-10-13T01:07:31;24.50;35.00
81383;DHT22;70834;37.534;-122.308;2023-10-13T01:09:52;24.40;35.00
81383;DHT22;70834;37.534;-122.308;2023-10-13T01:12:14;24.30;35.10
81383;DHT22;70834;37.534;-122.308;2023-10-13T01:14:36;24.20;35.20
81383;DHT22;70834;37.534;-122.308;2023-10-13T01:16:59;24.10;35.40
81383;DHT22;70834;37.534;-122.308;2023-10-13T01:19:21;23.90;35.20
81383;DHT22;70834;37.534;-122.308;2023-10-13T01:21:48;23.90;35.60
81383;DHT22;70834;37.534;-122.308;2023-10-13T01:24:11;23.80;35.50
81383;DHT22;70834;37.534;-122.308;2023-10-13T01:26:35;23.60;35.60
81383;DHT22;70834;37.534;-122.308;2023-10-13T01:29:00;23.50;35.30
81383;DHT22;70834;37.534;-122.308;2023-10-13T01:31:23;23.40;35.10
81383;DHT22;70834;37.534;-122.308;2023-10-13T01:33:52;23.30;35.10
81383;DHT22;70834;37.534;-122.308;2023-10-13T01:36:21;23.10;34.90
81383;DHT22;70834;37.534;-122.308;2023-10-13T01:38:49;23.10;34.90
81383;DHT22;70834;37.534;-122.308;2023-10-13T01:41:15;22.90;34.90
81383;DHT22;70834;37.534;-122.308;2023-10-13T01:43:37;22.80;35.00
81383;DHT22;70834;37.534;-122.308;2023-10-13T01:46:00;22.70;35.10
81383;DHT22;70834;37.534;-122.308;2023-10-13T01:48:35;22.60;35.30
81383;DHT22;70834;37.534;-122.308;2023-10-13T01:51:01;22.40;35.20
81383;DHT22;70834;37.534;-122.308;2023-10-13T01:53:25;22.30;35.40
81383;DHT22;70834;37.534;-122.308;2023-10-13T01:55:49;22.20;35.40
81383;DHT22;70834;37.534;-122.308;2023-10-13T01:58:15;22.10;35.70
81383;DHT22;70834;37.534;-122.308;2023-10-13T02:00:36;22.00;35.80
81383;DHT22;70834;37.534;-122.308;2023-10-13T02:03:02;21.90;35.90
81383;DHT22;70834;37.534;-122.308;2023-10-13T02:05:25;21.80;35.90
81383;DHT22;70834;37.534;-122.308;2023-10-13T02:07:54;21.70;36.20
81383;DHT22;70834;37.534;-122.308;2023-10-13T02:10:16;21.50;36.10
81383;DHT22;70834;37.534;-122.308;2023-10-13T02:12:37;21.40;36.20
81383;DHT22;70834;37.534;-122.308;2023-10-13T02:15:05;21.30;36.40
81383;DHT22;70834;37.534;-122.308;2023-10-13T02:17:27;21.20;36.60
81383;DHT22;70834;37.534;-122.308;2023-10-13T02:19:49;21.10;36.70
81383;DHT22;70834;37.534;-122.308;2023-10-13T02:22:15;21.00;37.00
81383;DHT22;70834;37.534;-122.308;2023-10-13T02:24:48;20.90;37.10
81383;DHT22;70834;37.534;-122.308;2023-10-13T02:27:12;20.70;37.20
81383;DHT22;70834;37.534;-122.308;2023-10-13T02:29:34;20.70;37.40
81383;DHT22;70834;37.534;-122.308;2023-10-13T02:32:00;20.60;37.70
81383;DHT22;70834;37.534;-122.308;2023-10-13T02:34:25;20.40;37.80
81383;DHT22;70834;37.534;-122.308;2023-10-13T02:36:46;20.30;38.00
81383;DHT22;70834;37.534;-122.308;2023-10-13T02:39:09;20.30;38.30
81383;DHT22;70834;37.534;-122.308;2023-10-13T02:41:30;20.20;38.50
81383;DHT22;70834;37.534;-122.308;2023-10-13T02:43:54;20.10;38.90
81383;DHT22;70834;37.534;-122.308;2023-10-13T02:46:16;20.00;39.00
81383;DHT22;70834;37.534;-122.308;2023-10-13T02:48:37;19.90;39.00
81383;DHT22;70834;37.534;-122.308;2023-10-13T02:51:02;19.80;39.20
81383;DHT22;70834;37.534;-122.308;2023-10-13T02:53:26;19.70;39.30
81383;DHT22;70834;37.534;-122.308;2023-10-13T02:55:53;19.60;39.50
81383;DHT22;70834;37.534;-122.308;2023-10-13T02:58:16;19.50;39.70
81383;DHT22;70834;37.534;-122.308;2023-10-13T03:00:38;19.40;40.00
81383;DHT22;70834;37.534;-122.308;2023-10-13T03:03:01;19.30;40.10
81383;DHT22;70834;37.534;-122.308;2023-10-13T03:05:23;19.30;40.30
81383;DHT22;70834;37.534;-122.308;2023-10-13T03:07:44;19.20;40.10
81383;DHT22;70834;37.534;-122.308;2023-10-13T03:10:06;19.10;40.20
81383;DHT22;70834;37.534;-122.308;2023-10-13T03:12:31;19.10;40.60
81383;DHT22;70834;37.534;-122.308;2023-10-13T03:14:54;19.00;40.90
81383;DHT22;70834;37.534;-122.308;2023-10-13T03:17:33;18.90;41.30
81383;DHT22;70834;37.534;-122.308;2023-10-13T03:19:54;18.90;41.40
81383;DHT22;70834;37.534;-122.308;2023-10-13T03:22:16;18.80;41.40
81383;DHT22;70834;37.534;-122.308;2023-10-13T03:24:39;18.70;41.40
81383;DHT22;70834;37.534;-122.308;2023-10-13T03:27:07;18.70;41.60
81383;DHT22;70834;37.534;-122.308;2023-10-13T03:29:51;18.60;41.80
81383;DHT22;70834;37.534;-122.308;2023-10-13T03:32:16;18.50;41.90
81383;DHT22;70834;37.534;-122.308;2023-10-13T03:34:43;18.50;42.10
81383;DHT22;70834;37.534;-122.308;2023-10-13T03:37:15;18.40;42.50
81383;DHT22;70834;37.534;-122.308;2023-10-13T03:39:40;18.40;42.70
81383;DHT22;70834;37.534;-122.308;2023-10-13T03:42:05;18.30;43.00
81383;DHT22;70834;37.534;-122.308;2023-10-13T03:44:32;18.20;43.30
81383;DHT22;70834;37.534;-122.308;2023-10-13T03:46:53;18.20;43.40
81383;DHT22;70834;37.534;-122.308;2023-10-13T03:49:16;18.10;43.60
81383;DHT22;70834;37.534;-122.308;2023-10-13T03:51:42;18.10;43.80
81383;DHT22;70834;37.534;-122.308;2023-10-13T03:54:04;18.10;44.60
81383;DHT22;70834;37.534;-122.308;2023-10-13T03:56:28;18.00;43.90
81383;DHT22;70834;37.534;-122.308;2023-10-13T03:59:02;17.90;44.00
81383;DHT22;70834;37.534;-122.308;2023-10-13T04:01:27;17.90;43.80
81383;DHT22;70834;37.534;-122.308;2023-10-13T04:04:16;17.80;43.80
81383;DHT22;70834;37.534;-122.308;2023-10-13T04:06:54;17.70;44.10
81383;DHT22;70834;37.534;-122.308;2023-10-13T04:09:35;17.70;44.70
81383;DHT22;70834;37.534;-122.308;2023-10-13T04:12:09;17.60;45.30
81383;DHT22;70834;37.534;-122.308;2023-10-13T04:14:36;17.50;45.50
81383;DHT22;70834;37.534;-122.308;2023-10-13T04:17:16;17.50;46.60
81383;DHT22;70834;37.534;-122.308;2023-10-13T04:19:43;17.40;46.80
81383;DHT22;70834;37.534;-122.308;2023-10-13T04:22:23;17.30;47.20
81383;DHT22;70834;37.534;-122.308;2023-10-13T04:25:04;17.30;47.60
81383;DHT22;70834;37.534;-122.308;2023-10-13T04:27:46;17.20;47.80
81383;DHT22;70834;37.534;-122.308;2023-10-13T04:30:36;17.10;48.50
81383;DHT22;70834;37.534;-122.308;2023-10-13T04:33:16;17.00;48.30
81383;DHT22;70834;37.534;-122.308;2023-10-13T04:36:02;17.00;48.50
81383;DHT22;70834;37.534;-122.308;2023-10-13T04:38:46;16.90;49.10
81383;DHT22;70834;37.534;-122.308;2023-10-13T04:41:17;16.80;50.20
81383;DHT22;70834;37.534;-122.308;2023-10-13T04:43:43;16.70;50.20
81383;DHT22;70834;37.534;-122.308;2023-10-13T04:46:17;16.70;50.60
81383;DHT22;70834;37.534;-122.308;2023-10-13T04:48:58;16.60;50.30
81383;DHT22;70834;37.534;-122.308;2023-10-13T04:51:30;16.50;50.50
81383;DHT22;70834;37.534;-122.308;2023-10-13T04:54:18;16.50;50.90
81383;DHT22;70834;37.534;-122.308;2023-10-13T04:57:05;16.40;51.20
81383;DHT22;70834;37.534;-122.308;2023-10-13T04:59:49;16.40;50.90
81383;DHT22;70834;37.534;-122.308;2023-10-13T05:02:32;16.30;51.20
81383;DHT22;70834;37.534;-122.308;2023-10-13T05:04:57;16.20;51.60
81383;DHT22;70834;37.534;-122.308;2023-10-13T05:07:38;16.20;51.90
81383;DHT22;70834;37.534;-122.308;2023-10-13T05:10:18;16.20;52.10
81383;DHT22;70834;37.534;-122.308;2023-10-13T05:12:58;16.10;52.20
81383;DHT22;70834;37.534;-122.308;2023-10-13T05:15:48;16.10;52.50
81383;DHT22;70834;37.534;-122.308;2023-10-13T05:18:28;16.00;52.60
81383;DHT22;70834;37.534;-122.308;2023-10-13T05:21:07;16.00;52.70
81383;DHT22;70834;37.534;-122.308;2023-10-13T05:23:47;16.00;52.80
81383;DHT22;70834;37.534;-122.308;2023-10-13T05:26:27;15.90;53.00
81383;DHT22;70834;37.534;-122.308;2023-10-13T05:29:07;15.90;53.20
81383;DHT22;70834;37.534;-122.308;2023-10-13T05:31:47;15.80;52.90
81383;DHT22;70834;37.534;-122.308;2023-10-13T05:34:26;15.80;52.90
81383;DHT22;70834;37.534;-122.308;2023-10-13T05:37:06;15.80;53.40
81383;DHT22;70834;37.534;-122.308;2023-10-13T05:39:45;15.70;53.40
81383;DHT22;70834;37.534;-122.308;2023-10-13T05:42:25;15.70;53.50
81383;DHT22;70834;37.534;-122.308;2023-10-13T05:45:05;15.60;53.60
81383;DHT22;70834;37.534;-122.308;2023-10-13T05:47:38;15.60;53.70
81383;DHT22;70834;37.534;-122.308;2023-10-13T05:50:14;15.60;53.70
81383;DHT22;70834;37.534;-122.308;2023-10-13T05:52:36;15.50;53.90
81383;DHT22;70834;37.534;-122.308;2023-10-13T05:55:15;15.60;54.10
81383;DHT22;70834;37.534;-122.308;2023-10-13T05:57:55;15.50;53.80
81383;DHT22;70834;37.534;-122.308;2023-10-13T06:00:42;15.50;53.90
81383;DHT22;70834;37.534;-122.308;2023-10-13T06:03:21;15.40;53.90
81383;DHT22;70834;37.534;-122.308;2023-10-13T06:06:01;15.40;54.20
81383;DHT22;70834;37.534;-122.308;2023-10-13T06:08:41;15.40;54.40
81383;DHT22;70834;37.534;-122.308;2023-10-13T06:11:20;15.40;54.50
81383;DHT22;70834;37.534;-122.308;2023-10-13T06:14:00;15.30;54.40
81383;DHT22;70834;37.534;-122.308;2023-10-13T06:16:39;15.30;54.50
81383;DHT22;70834;37.534;-122.308;2023-10-13T06:19:19;15.20;54.70
81383;DHT22;70834;37.534;-122.308;2023-10-13T06:21:58;15.20;54.90
81383;DHT22;70834;37.534;-122.308;2023-10-13T06:24:38;15.20;54.80
81383;DHT22;70834;37.534;-122.308;2023-10-13T06:27:18;15.20;54.50
81383;DHT22;70834;37.534;-122.308;2023-10-13T06:29:57;15.20;54.50
81383;DHT22;70834;37.534;-122.308;2023-10-13T06:32:19;15.20;54.60
81383;DHT22;70834;37.534;-122.308;2023-10-13T06:34:41;15.20;54.70
81383;DHT22;70834;37.534;-122.308;2023-10-13T06:37:05;15.10;54.60
81383;DHT22;70834;37.534;-122.308;2023-10-13T06:39:46;15.10;54.60
81383;DHT22;70834;37.534;-122.308;2023-10-13T06:42:08;15.10;54.70
81383;DHT22;70834;37.534;-122.308;2023-10-13T06:44:29;15.10;54.70
81383;DHT22;70834;37.534;-122.308;2023-10-13T06:46:53;15.10;54.70
81383;DHT22;70834;37.534;-122.308;2023-10-13T06:49:14;15.10;55.00
81383;DHT22;70834;37.534;-122.308;2023-10-13T06:51:36;15.10;54.80
81383;DHT22;70834;37.534;-122.308;2023-10-13T06:53:58;15.00;54.70
81383;DHT22;70834;37.534;-122.308;2023-10-13T06:56:21;15.10;54.70
81383;DHT22;70834;37.534;-122.308;2023-10-13T06:58:44;15.10;54.70
81383;DHT22;70834;37.534;-122.308;2023-10-13T07:01:07;15.10;54.80
81383;DHT22;70834;37.534;-122.308;2023-10-13T07:03:35;15.10;54.50
81383;DHT22;70834;37.534;-122.308;2023-10-13T07:05:57;15.10;54.60
81383;DHT22;70834;37.534;-122.308;2023-10-13T07:08:20;15.10;55.00
81383;DHT22;70834;37.534;-122.308;2023-10-13T07:10:52;15.10;54.90
81383;DHT22;70834;37.534;-122.308;2023-10-13T07:13:40;15.20;54.80
81383;DHT22;70834;37.534;-122.308;2023-10-13T07:16:08;15.20;54.90
81383;DHT22;70834;37.534;-122.308;2023-10-13T07:18:33;15.20;55.30
81383;DHT22;70834;37.534;-122.308;2023-10-13T07:21:03;15.20;55.20
81383;DHT22;70834;37.534;-122.308;2023-10-13T07:23:30;15.20;55.30
81383;DHT22;70834;37.534;-122.308;2023-10-13T07:26:15;15.20;55.30
81383;DHT22;70834;37.534;-122.308;2023-10-13T07:28:36;15.20;55.40
81383;DHT22;70834;37.534;-122.308;2023-10-13T07:31:04;15.20;55.00
81383;DHT22;70834;37.534;-122.308;2023-10-13T07:33:26;15.20;55.20
81383;DHT22;70834;37.534;-122.308;2023-10-13T07:35:48;15.20;55.20
81383;DHT22;70834;37.534;-122.308;2023-10-13T07:38:20;15.20;55.10
81383;DHT22;70834;37.534;-122.308;2023-10-13T07:40:43;15.20;54.90
81383;DHT22;70834;37.534;-122.308;2023-10-13T07:43:14;15.20;54.70
81383;DHT22;70834;37.534;-122.308;2023-10-13T07:45:41;15.20;55.00
81383;DHT22;70834;37.534;-122.308;2023-10-13T07:48:08;15.20;54.90
81383;DHT22;70834;37.534;-122.308;2023-10-13T07:50:42;15.30;55.00
81383;DHT22;70834;37.534;-122.308;2023-10-13T07:53:05;15.20;54.70
81383;DHT22;70834;37.534;-122.308;2023-10-13T07:55:35;15.20;55.00
81383;DHT22;70834;37.534;-122.308;2023-10-13T07:58:00;15.30;54.80
81383;DHT22;70834;37.534;-122.308;2023-10-13T08:00:28;15.30;54.70
81383;DHT22;70834;37.534;-122.308;2023-10-13T08:02:59;15.30;54.80
81383;DHT22;70834;37.534;-122.308;2023-10-13T08:05:53;15.30;55.40
81383;DHT22;70834;37.534;-122.308;2023-10-13T08:08:33;15.30;55.30
81383;DHT22;70834;37.534;-122.308;2023-10-13T08:11:01;15.30;55.30
81383;DHT22;70834;37.534;-122.308;2023-10-13T08:13:32;15.20;55.10
81383;DHT22;70834;37.534;-122.308;2023-10-13T08:15:53;15.20;55.10
81383;DHT22;70834;37.534;-122.308;2023-10-13T08:18:15;15.30;55.30
81383;DHT22;70834;37.534;-122.308;2023-10-13T08:20:51;15.20;55.30
81383;DHT22;70834;37.534;-122.308;2023-10-13T08:23:14;15.20;55.10
81383;DHT22;70834;37.534;-122.308;2023-10-13T08:25:41;15.20;54.80
81383;DHT22;70834;37.534;-122.308;2023-10-13T08:28:41;15.20;54.70
81383;DHT22;70834;37.534;-122.308;2023-10-13T08:31:14;15.20;54.60
81383;DHT22;70834;37.534;-122.308;2023-10-13T08:33:48;15.20;55.00
81383;DHT22;70834;37.534;-122.308;2023-10-13T08:36:09;15.20;54.80
81383;DHT22;70834;37.534;-122.308;2023-10-13T08:38:49;15.20;54.70
81383;DHT22;70834;37.534;-122.308;2023-10-13T08:41:16;15.20;54.50
81383;DHT22;70834;37.534;-122.308;2023-10-13T08:43:42;15.20;54.40
81383;DHT22;70834;37.534;-122.308;2023-10-13T08:46:11;15.20;54.90
81383;DHT22;70834;37.534;-122.308;2023-10-13T08:48:46;15.20;54.80
81383;DHT22;70834;37.534;-122.308;2023-10-13T08:51:08;15.20;54.90
81383;DHT22;70834;37.534;-122.308;2023-10-13T08:53:49;15.20;54.80
81383;DHT22;70834;37.534;-122.308;2023-10-13T08:56:19;15.20;54.70
81383;DHT22;70834;37.534;-122.308;2023-10-13T08:58:57;15.20;54.90
81383;DHT22;70834;37.534;-122.308;2023-10-13T09:01:42;15.20;55.60
81383;DHT22;70834;37.534;-122.308;2023-10-13T09:04:15;15.10;55.60
81383;DHT22;70834;37.534;-122.308;2023-10-13T09:06:39;15.10;55.50
81383;DHT22;70834;37.534;-122.308;2023-10-13T09:09:08;15.10;55.30
81383;DHT22;70834;37.534;-122.308;2023-10-13T09:11:47;15.00;55.20
81383;DHT22;70834;37.534;-122.308;2023-10-13T09:14:15;15.00;55.30
81383;DHT22;70834;37.534;-122.308;2023-10-13T09:17:05;15.00;55.70
81383;DHT22;70834;37.534;-122.308;2023-10-13T09:19:51;15.00;55.70
81383;DHT22;70834;37.534;-122.308;2023-10-13T09:22:22;14.90;55.50
81383;DHT22;70834;37.534;-122.308;2023-10-13T09:24:59;14.90;55.70
81383;DHT22;70834;37.534;-122.308;2023-10-13T09:27:21;14.90;55.50
81383;DHT22;70834;37.534;-122.308;2023-10-13T09:29:55;14.80;55.70
81383;DHT22;70834;37.534;-122.308;2023-10-13T09:32:17;14.80;55.60
81383;DHT22;70834;37.534;-122.308;2023-10-13T09:34:40;14.80;56.80
81383;DHT22;70834;37.534;-122.308;2023-10-13T09:37:06;14.70;55.90
81383;DHT22;70834;37.534;-122.308;2023-10-13T09:39:27;14.70;56.60
81383;DHT22;70834;37.534;-122.308;2023-10-13T09:41:57;14.70;56.80
81383;DHT22;70834;37.534;-122.308;2023-10-13T09:44:18;14.60;56.70
81383;DHT22;70834;37.534;-122.308;2023-10-13T09:46:42;14.60;56.30
81383;DHT22;70834;37.534;-122.308;2023-10-13T09:49:13;14.60;56.30
81383;DHT22;70834;37.534;-122.308;2023-10-13T09:51:54;14.60;56.50
81383;DHT22;70834;37.534;-122.308;2023-10-13T09:54:35;14.50;56.40
81383;DHT22;70834;37.534;-122.308;2023-10-13T09:57:12;14.50;56.90
81383;DHT22;70834;37.534;-122.308;2023-10-13T09:59:45;14.50;56.80
81383;DHT22;70834;37.534;-122.308;2023-10-13T10:02:14;14.40;56.60
81383;DHT22;70834;37.534;-122.308;2023-10-13T10:04:51;14.40;56.60
81383;DHT22;70834;37.534;-122.308;2023-10-13T10:07:24;14.40;56.70
81383;DHT22;70834;37.534;-122.308;2023-10-13T10:09:56;14.40;56.70
81383;DHT22;70834;37.534;-122.308;2023-10-13T10:17:44;14.40;56.80
81383;DHT22;70834;37.534;-122.308;2023-10-13T10:20:07;14.30;56.90
81383;DHT22;70834;37.534;-122.308;2023-10-13T10:22:41;14.30;56.90
81383;DHT22;70834;37.534;-122.308;2023-10-13T10:25:10;14.30;56.90
81383;DHT22;70834;37.534;-122.308;2023-10-13T10:27:58;14.30;56.90
81383;DHT22;70834;37.534;-122.308;2023-10-13T10:30:25;14.30;57.10
81383;DHT22;70834;37.534;-122.308;2023-10-13T10:32:57;14.20;57.20
81383;DHT22;70834;37.534;-122.308;2023-10-13T10:35:23;14.20;57.20
81383;DHT22;70834;37.534;-122.308;2023-10-13T10:37:50;14.30;57.20
81383;DHT22;70834;37.534;-122.308;2023-10-13T10:40:15;14.20;57.20
81383;DHT22;70834;37.534;-122.308;2023-10-13T10:42:56;14.20;57.20
81383;DHT22;70834;37.534;-122.308;2023-10-13T10:45:21;14.20;57.00
81383;DHT22;70834;37.534;-122.308;2023-10-13T10:47:49;14.20;56.90
81383;DHT22;70834;37.534;-122.308;2023-10-13T10:50:12;14.20;57.10
81383;DHT22;70834;37.534;-122.308;2023-10-13T10:52:47;14.20;57.20
81383;DHT22;70834;37.534;-122.308;2023-10-13T10:55:09;14.10;57.30
81383;DHT22;70834;37.534;-122.308;2023-10-13T10:57:34;14.20;57.20
81383;DHT22;70834;37.534;-122.308;2023-10-13T10:59:58;14.10;57.10
81383;DHT22;70834;37.534;-122.308;2023-10-13T11:02:32;14.10;57.10
81383;DHT22;70834;37.534;-122.308;2023-10-13T11:04:53;14.10;56.80
81383;DHT22;70834;37.534;-122.308;2023-10-13T11:07:26;14.10;57.00
81383;DHT22;70834;37.534;-122.308;2023-10-13T11:09:48;14.00;56.80
81383;DHT22;70834;37.534;-122.308;2023-10-13T11:12:14;14.00;57.10
81383;DHT22;70834;37.534;-122.308;2023-10-13T11:14:36;14.00;57.20
81383;DHT22;70834;37.534;-122.308;2023-10-13T11:16:59;13.90;57.80
81383;DHT22;70834;37.534;-122.308;2023-10-13T11:19:38;13.90;57.70
81383;DHT22;70834;37.534;-122.308;2023-10-13T11:22:13;13.90;57.80
81383;DHT22;70834;37.534;-122.308;2023-10-13T11:24:52;13.80;58.30
81383;DHT22;70834;37.534;-122.308;2023-10-13T11:27:16;13.80;58.20
81383;DHT22;70834;37.534;-122.308;2023-10-13T11:29:41;13.70;58.40
81383;DHT22;70834;37.534;-122.308;2023-10-13T11:32:03;13.70;58.50
81383;DHT22;70834;37.534;-122.308;2023-10-13T11:34:25;13.60;58.70
81383;DHT22;70834;37.534;-122.308;2023-10-13T11:36:51;13.60;58.70
81383;DHT22;70834;37.534;-122.308;2023-10-13T11:39:13;13.60;58.80
81383;DHT22;70834;37.534;-122.308;2023-10-13T11:41:43;13.60;59.10
81383;DHT22;70834;37.534;-122.308;2023-10-13T11:44:14;13.50;59.10
81383;DHT22;70834;37.534;-122.308;2023-10-13T11:46:39;13.50;59.10
81383;DHT22;70834;37.534;-122.308;2023-10-13T11:49:20;13.40;59.70
81383;DHT22;70834;37.534;-122.308;2023-10-13T11:51:50;13.40;59.80
81383;DHT22;70834;37.534;-122.308;2023-10-13T11:54:19;13.40;59.70
81383;DHT22;70834;37.534;-122.308;2023-10-13T11:56:41;13.30;59.80
81383;DHT22;70834;37.534;-122.308;2023-10-13T11:59:02;13.20;60.40
81383;DHT22;70834;37.534;-122.308;2023-10-13T12:01:24;13.20;60.10
81383;DHT22;70834;37.534;-122.308;2023-10-13T12:04:05;13.20;60.10
81383;DHT22;70834;37.534;-122.308;2023-10-13T12:06:45;13.20;60.30
81383;DHT22;70834;37.534;-122.308;2023-10-13T12:09:10;13.10;60.60
81383;DHT22;70834;37.534;-122.308;2023-10-13T12:11:37;13.10;60.70
81383;DHT22;70834;37.534;-122.308;2023-10-13T12:14:06;13.00;60.70
81383;DHT22;70834;37.534;-122.308;2023-10-13T12:16:49;13.00;60.50
81383;DHT22;70834;37.534;-122.308;2023-10-13T12:19:13;13.00;60.30
81383;DHT22;70834;37.534;-122.308;2023-10-13T12:21:37;13.00;60.70
81383;DHT22;70834;37.534;-122.308;2023-10-13T12:23:58;12.90;61.40
81383;DHT22;70834;37.534;-122.308;2023-10-13T12:26:22;12.90;61.60
81383;DHT22;70834;37.534;-122.308;2023-10-13T12:28:53;12.90;62.00
81383;DHT22;70834;37.534;-122.308;2023-10-13T12:31:26;12.80;62.20
81383;DHT22;70834;37.534;-122.308;2023-10-13T12:33:48;12.80;62.40
81383;DHT22;70834;37.534;-122.308;2023-10-13T12:36:10;12.70;62.50
81383;DHT22;70834;37.534;-122.308;2023-10-13T12:38:51;12.70;62.30
81383;DHT22;70834;37.534;-122.308;2023-10-13T12:41:32;12.70;62.10
81383;DHT22;70834;37.534;-122.308;2023-10-13T12:44:23;12.70;62.30
81383;DHT22;70834;37.534;-122.308;2023-10-13T12:47:03;12.60;62.40
81383;DHT22;70834;37.534;-122.308;2023-10-13T12:49:43;12.60;62.60
81383;DHT22;70834;37.534;-122.308;2023-10-13T12:52:04;12.60;62.90
81383;DHT22;70834;37.534;-122.308;2023-10-13T12:54:36;12.60;62.90
81383;DHT22;70834;37.534;-122.308;2023-10-13T12:56:59;12.60;62.90
81383;DHT22;70834;37.534;-122.308;2023-10-13T12:59:21;12.60;62.70
81383;DHT22;70834;37.534;-122.308;2023-10-13T13:01:47;12.50;62.80
81383;DHT22;70834;37.534;-122.308;2023-10-13T13:04:10;12.50;62.70
81383;DHT22;70834;37.534;-122.308;2023-10-13T13:06:50;12.50;63.20
81383;DHT22;70834;37.534;-122.308;2023-10-13T13:09:11;12.50;63.50
81383;DHT22;70834;37.534;-122.308;2023-10-13T13:11:33;12.50;63.40
81383;DHT22;70834;37.534;-122.308;2023-10-13T13:13:59;12.50;63.60
81383;DHT22;70834;37.534;-122.308;2023-10-13T13:16:20;12.50;63.50
81383;DHT22;70834;37.534;-122.308;2023-10-13T13:18:45;12.50;63.90
81383;DHT22;70834;37.534;-122.308;2023-10-13T13:21:07;12.50;63.40
81383;DHT22;70834;37.534;-122.308;2023-10-13T13:23:33;12.40;63.60
81383;DHT22;70834;37.534;-122.308;2023-10-13T13:25:55;12.40;63.80
81383;DHT22;70834;37.534;-122.308;2023-10-13T13:28:18;12.40;63.80
81383;DHT22;70834;37.534;-122.308;2023-10-13T13:30:41;12.40;63.60
81383;DHT22;70834;37.534;-122.308;2023-10-13T13:33:02;12.40;63.80
81383;DHT22;70834;37.534;-122.308;2023-10-13T13:35:33;12.40;63.80
81383;DHT22;70834;37.534;-122.308;2023-10-13T13:37:55;12.40;63.80
81383;DHT22;70834;37.534;-122.308;2023-10-13T13:40:26;12.30;63.60
81383;DHT22;70834;37.534;-122.308;2023-10-13T13:42:55;12.30;63.70
81383;DHT22;70834;37.534;-122.308;2023-10-13T13:45:18;12.30;63.70
81383;DHT22;70834;37.534;-122.308;2023-10-13T13:47:51;12.30;64.00
81383;DHT22;70834;37.534;-122.308;2023-10-13T13:50:15;12.30;64.20
81383;DHT22;70834;37.534;-122.308;2023-10-13T13:52:44;12.30;64.00
81383;DHT22;70834;37.534;-122.308;2023-10-13T13:55:08;12.30;64.20
81383;DHT22;70834;37.534;-122.308;2023-10-13T13:57:30;12.20;64.20
81383;DHT22;70834;37.534;-122.308;2023-10-13T13:59:52;12.20;64.20
81383;DHT22;70834;37.534;-122.308;2023-10-13T14:02:13;12.20;64.30
81383;DHT22;70834;37.534;-122.308;2023-10-13T14:04:41;12.10;64.50
81383;DHT22;70834;37.534;-122.308;2023-10-13T14:07:07;12.10;64.50
81383;DHT22;70834;37.534;-122.308;2023-10-13T14:09:28;12.10;64.40
81383;DHT22;70834;37.534;-122.308;2023-10-13T14:12:01;12.10;64.70
81383;DHT22;70834;37.534;-122.308;2023-10-13T14:14:40;12.10;64.90
81383;DHT22;70834;37.534;-122.308;2023-10-13T14:17:08;12.10;64.70
81383;DHT22;70834;37.534;-122.308;2023-10-13T14:19:30;12.00;64.90
81383;DHT22;70834;37.534;-122.308;2023-10-13T14:21:51;12.00;65.00
81383;DHT22;70834;37.534;-122.308;2023-10-13T14:24:14;12.00;65.50
81383;DHT22;70834;37.534;-122.308;2023-10-13T14:26:35;12.00;65.30
81383;DHT22;70834;37.534;-122.308;2023-10-13T14:28:58;11.90;65.20
81383;DHT22;70834;37.534;-122.308;2023-10-13T14:31:30;11.90;65.10
81383;DHT22;70834;37.534;-122.308;2023-10-13T14:33:51;11.90;65.30
81383;DHT22;70834;37.534;-122.308;2023-10-13T14:36:14;11.90;65.30
81383;DHT22;70834;37.534;-122.308;2023-10-13T14:38:40;11.90;65.40
81383;DHT22;70834;37.534;-122.308;2023-10-13T14:41:05;11.90;65.10
81383;DHT22;70834;37.534;-122.308;2023-10-13T14:43:26;11.90;64.90
81383;DHT22;70834;37.534;-122.308;2023-10-13T14:45:48;11.90;64.60
81383;DHT22;70834;37.534;-122.308;2023-10-13T14:48:10;11.90;64.80
81383;DHT22;70834;37.534;-122.308;2023-10-13T14:50:33;11.90;64.90
81383;DHT22;70834;37.534;-122.308;2023-10-13T14:52:55;11.90;64.90
81383;DHT22;70834;37.534;-122.308;2023-10-13T14:55:16;12.00;65.30
81383;DHT22;70834;37.534;-122.308;2023-10-13T14:57:40;12.00;66.00
81383;DHT22;70834;37.534;-122.308;2023-10-13T15:00:02;12.10;66.10
81383;DHT22;70834;37.534;-122.308;2023-10-13T15:02:34;12.10;66.30
81383;DHT22;70834;37.534;-122.308;2023-10-13T15:04:57;12.20;66.30